createdAt,value
2016-05-24T00:00:25.716Z,1009.77
2016-05-24T00:01:25.718Z,1009.8
2016-05-24T00:02:25.722Z,1009.79
2016-05-24T00:03:25.724Z,1009.81
2016-05-24T00:04:25.743Z,1009.78
2016-05-24T00:05:25.745Z,1009.81
2016-05-24T00:06:25.748Z,1009.78
2016-05-24T00:07:25.750Z,1009.77
2016-05-24T00:08:25.769Z,1009.77
2016-05-24T00:09:25.772Z,1009.76
2016-05-24T00:10:25.775Z,1009.75
2016-05-24T00:11:25.777Z,1009.69
2016-05-24T00:12:25.795Z,1009.72
2016-05-24T00:13:25.798Z,1009.68
2016-05-24T00:14:25.800Z,1009.66
2016-05-24T00:15:25.803Z,1009.62
2016-05-24T00:16:25.806Z,1009.6
2016-05-24T00:17:25.809Z,1009.62
2016-05-24T00:18:25.827Z,1009.64
2016-05-24T00:19:25.830Z,1009.64
2016-05-24T00:20:25.849Z,1009.6
2016-05-24T00:21:25.836Z,1009.69
2016-05-24T00:22:25.854Z,1009.63
2016-05-24T00:23:25.857Z,1009.61
2016-05-24T00:24:25.859Z,1009.61
2016-05-24T00:25:25.862Z,1009.62
2016-05-24T00:26:25.879Z,1009.61
2016-05-24T00:27:25.868Z,1009.63
2016-05-24T00:28:25.885Z,1009.61
2016-05-24T00:29:25.888Z,1009.62
2016-05-24T00:30:25.890Z,1009.63
2016-05-24T00:31:25.894Z,1009.63
2016-05-24T00:33:25.930Z,1009.63
2016-05-24T00:34:25.917Z,1009.62
2016-05-24T00:35:25.920Z,1009.62
2016-05-24T00:36:25.922Z,1009.63
2016-05-24T00:37:25.940Z,1009.61
2016-05-24T00:38:25.943Z,1009.65
2016-05-24T00:39:25.946Z,1009.65
2016-05-24T00:40:25.949Z,1009.72
2016-05-24T00:41:25.983Z,1009.69
2016-05-24T00:42:25.970Z,1009.72
2016-05-24T00:43:25.988Z,1009.72
2016-05-24T00:44:26.459Z,1009.75
2016-05-24T00:45:25.994Z,1009.75
2016-05-24T00:46:25.997Z,1009.75
2016-05-24T00:47:26.014Z,1009.78
2016-05-24T00:48:26.017Z,1009.75
2016-05-24T00:49:26.020Z,1009.76
2016-05-24T00:50:26.023Z,1009.67
2016-05-24T00:51:26.025Z,1009.76
2016-05-24T00:52:26.028Z,1009.77
2016-05-24T00:53:26.030Z,1009.77
2016-05-24T00:54:26.049Z,1009.78
2016-05-24T00:55:26.052Z,1009.77
2016-05-24T00:56:26.055Z,1009.75
2016-05-24T00:57:26.057Z,1009.77
2016-05-24T00:58:26.076Z,1009.72
2016-05-24T00:59:26.234Z,1009.75
2016-05-24T01:00:26.092Z,1009.75
2016-05-24T01:01:26.138Z,1009.78
2016-05-24T01:02:26.169Z,1009.8
2016-05-24T01:03:26.201Z,1009.77
2016-05-24T01:04:26.231Z,1009.75
2016-05-24T01:05:26.255Z,1009.79
2016-05-24T01:06:26.268Z,1009.76
2016-05-24T01:07:26.296Z,1009.81
2016-05-24T01:08:26.310Z,1009.8
2016-05-24T01:09:26.323Z,1009.81
2016-05-24T01:10:26.333Z,1009.86
2016-05-24T01:11:26.354Z,1009.86
2016-05-24T01:12:26.361Z,1009.87
2016-05-24T01:13:26.367Z,1009.84
2016-05-24T01:14:26.437Z,1009.79
2016-05-24T01:15:26.380Z,1009.77
2016-05-24T01:16:26.399Z,1009.78
2016-05-24T01:17:26.403Z,1009.81
2016-05-24T01:18:26.407Z,1009.75
2016-05-24T01:19:26.426Z,1009.79
2016-05-24T01:20:26.430Z,1009.75
2016-05-24T01:21:26.434Z,1009.8
2016-05-24T01:22:26.436Z,1009.79
2016-05-24T01:23:26.440Z,1009.77
2016-05-24T01:24:26.457Z,1009.79
2016-05-24T01:25:26.461Z,1009.77
2016-05-24T01:26:26.463Z,1009.76
2016-05-24T01:27:26.467Z,1009.79
2016-05-24T01:28:26.485Z,1009.82
2016-05-24T01:29:26.833Z,1009.84
2016-05-24T01:30:26.491Z,1009.8
2016-05-24T01:31:26.495Z,1009.81
2016-05-24T01:32:26.514Z,1009.81
2016-05-24T01:33:26.516Z,1009.8
2016-05-24T01:34:26.518Z,1009.78
2016-05-24T01:35:26.521Z,1009.77
2016-05-24T01:36:26.523Z,1009.79
2016-05-24T01:37:26.527Z,1009.78
2016-05-24T01:38:26.545Z,1009.74
2016-05-24T01:39:26.547Z,1009.78
2016-05-24T01:40:26.550Z,1009.75
2016-05-24T01:41:26.552Z,1009.74
2016-05-24T01:42:26.571Z,1009.74
2016-05-24T01:43:26.620Z,1009.78
2016-05-24T01:44:26.577Z,1009.75
2016-05-24T01:45:26.579Z,1009.71
2016-05-24T01:46:26.597Z,1009.74
2016-05-24T01:47:26.599Z,1009.73
2016-05-24T01:48:26.618Z,1009.75
2016-05-24T01:49:26.605Z,1009.7
2016-05-24T01:50:26.608Z,1009.72
2016-05-24T01:51:26.642Z,1009.67
2016-05-24T01:52:26.629Z,1009.68
2016-05-24T01:53:26.631Z,1009.75
2016-05-24T01:54:26.634Z,1009.69
2016-05-24T01:55:26.653Z,1009.76
2016-05-24T01:56:26.656Z,1009.7
2016-05-24T01:57:26.658Z,1009.73
2016-05-24T01:58:26.661Z,1009.74
2016-05-24T01:59:26.914Z,1009.72
2016-05-24T02:00:26.682Z,1009.69
2016-05-24T02:01:26.684Z,1009.73
2016-05-24T02:02:26.687Z,1009.75
2016-05-24T02:03:26.689Z,1009.71
2016-05-24T02:04:26.708Z,1009.66
2016-05-24T02:05:26.710Z,1009.65
2016-05-24T02:06:26.714Z,1009.6
2016-05-24T02:07:26.733Z,1009.59
2016-05-24T02:08:26.719Z,1009.6
2016-05-24T02:09:26.737Z,1009.55
2016-05-24T02:10:26.740Z,1009.59
2016-05-24T02:11:26.743Z,1009.66
2016-05-24T02:12:26.761Z,1009.63
2016-05-24T02:13:26.764Z,1009.65
2016-05-24T02:14:26.766Z,1009.59
2016-05-24T02:15:26.769Z,1009.62
2016-05-24T02:16:26.771Z,1009.66
2016-05-24T02:17:26.790Z,1009.73
2016-05-24T02:18:26.793Z,1009.67
2016-05-24T02:19:26.795Z,1009.69
2016-05-24T02:20:26.814Z,1009.66
2016-05-24T02:21:26.816Z,1009.68
2016-05-24T02:22:26.818Z,1009.7
2016-05-24T02:23:26.821Z,1009.71
2016-05-24T02:24:26.840Z,1009.63
2016-05-24T02:25:26.843Z,1009.65
2016-05-24T02:26:26.845Z,1009.64
2016-05-24T02:27:26.848Z,1009.68
2016-05-24T02:28:26.851Z,1009.67
2016-05-24T02:29:26.870Z,1009.7
2016-05-24T02:30:26.872Z,1009.71
2016-05-24T02:31:26.875Z,1009.74
2016-05-24T02:32:26.877Z,1009.74
2016-05-24T02:33:26.880Z,1009.74
2016-05-24T02:34:26.897Z,1009.7
2016-05-24T02:35:26.901Z,1009.71
2016-05-24T02:36:26.903Z,1009.71
2016-05-24T02:37:26.906Z,1009.71
2016-05-24T02:38:26.908Z,1009.67
2016-05-24T02:39:26.927Z,1009.69
2016-05-24T02:40:26.930Z,1009.67
2016-05-24T02:41:26.933Z,1009.7
2016-05-24T02:42:26.952Z,1009.67
2016-05-24T02:43:26.954Z,1009.68
2016-05-24T02:44:26.956Z,1009.66
2016-05-24T02:45:27.021Z,1009.68
2016-05-24T02:46:26.962Z,1009.67
2016-05-24T02:47:27.027Z,1009.65
2016-05-24T02:48:27.030Z,1009.65
2016-05-24T02:49:26.985Z,1009.64
2016-05-24T02:50:27.051Z,1009.66
2016-05-24T02:51:27.006Z,1009.62
2016-05-24T02:52:27.009Z,1009.66
2016-05-24T02:53:27.059Z,1009.68
2016-05-24T02:54:27.015Z,1009.62
2016-05-24T02:55:27.032Z,1009.65
2016-05-24T02:56:27.035Z,1009.66
2016-05-24T02:57:27.038Z,1009.68
2016-05-24T02:58:27.041Z,1009.67
2016-05-24T02:59:27.043Z,1009.68
2016-05-24T03:00:27.046Z,1009.66
2016-05-24T03:01:27.064Z,1009.67
2016-05-24T03:02:27.067Z,1009.67
2016-05-24T03:03:27.070Z,1009.68
2016-05-24T03:04:27.073Z,1009.63
2016-05-24T03:05:27.091Z,1009.6
2016-05-24T03:06:27.094Z,1009.61
2016-05-24T03:07:27.097Z,1009.55
2016-05-24T03:08:27.099Z,1009.6
2016-05-24T03:09:27.117Z,1009.68
2016-05-24T03:10:27.120Z,1009.58
2016-05-24T03:11:27.122Z,1009.61
2016-05-24T03:12:27.125Z,1009.67
2016-05-24T03:13:27.143Z,1009.6
2016-05-24T03:14:27.146Z,1009.62
2016-05-24T03:15:27.149Z,1009.64
2016-05-24T03:16:27.152Z,1009.58
2016-05-24T03:17:27.155Z,1009.61
2016-05-24T03:18:27.173Z,1009.52
2016-05-24T03:19:27.190Z,1009.54
2016-05-24T03:20:27.178Z,1009.52
2016-05-24T03:21:27.196Z,1009.53
2016-05-24T03:22:27.215Z,1009.52
2016-05-24T03:23:27.202Z,1009.56
2016-05-24T03:24:27.204Z,1009.57
2016-05-24T03:25:27.207Z,1009.62
2016-05-24T03:26:27.210Z,1009.65
2016-05-24T03:27:27.228Z,1009.71
2016-05-24T03:28:27.231Z,1009.69
2016-05-24T03:29:27.234Z,1009.71
2016-05-24T03:30:27.251Z,1009.73
2016-05-24T03:31:27.239Z,1009.74
2016-05-24T03:32:27.257Z,1009.7
2016-05-24T03:33:27.259Z,1009.75
2016-05-24T03:34:27.262Z,1009.71
2016-05-24T03:35:27.265Z,1009.74
2016-05-24T03:36:27.283Z,1009.71
2016-05-24T03:37:27.303Z,1009.72
2016-05-24T03:38:27.289Z,1009.72
2016-05-24T03:39:27.292Z,1009.7
2016-05-24T03:40:27.310Z,1009.68
2016-05-24T03:41:27.313Z,1009.74
2016-05-24T03:42:27.315Z,1009.7
2016-05-24T03:43:27.319Z,1009.71
2016-05-24T03:44:27.321Z,1009.69
2016-05-24T03:45:27.371Z,1009.68
2016-05-24T03:46:27.341Z,1009.67
2016-05-24T03:47:27.344Z,1009.65
2016-05-24T03:48:27.346Z,1009.62
2016-05-24T03:49:27.366Z,1009.64
2016-05-24T03:50:27.368Z,1009.65
2016-05-24T03:51:27.371Z,1009.67
2016-05-24T03:52:27.373Z,1009.68
2016-05-24T03:53:27.377Z,1009.7
2016-05-24T03:54:27.379Z,1009.67
2016-05-24T03:55:27.398Z,1009.76
2016-05-24T03:56:27.400Z,1009.74
2016-05-24T03:57:27.403Z,1009.71
2016-05-24T03:58:27.421Z,1009.74
2016-05-24T03:59:27.423Z,1009.7
2016-05-24T04:00:27.426Z,1009.72
2016-05-24T04:01:27.445Z,1009.72
2016-05-24T04:02:27.431Z,1009.76
2016-05-24T04:03:27.450Z,1009.78
2016-05-24T04:04:27.453Z,1009.74
2016-05-24T04:05:27.456Z,1009.71
2016-05-24T04:06:27.458Z,1009.73
2016-05-24T04:07:27.476Z,1009.7
2016-05-24T04:08:27.478Z,1009.76
2016-05-24T04:09:27.481Z,1009.71
2016-05-24T04:10:27.484Z,1009.67
2016-05-24T04:11:27.487Z,1009.7
2016-05-24T04:12:27.489Z,1009.66
2016-05-24T04:13:27.508Z,1009.7
2016-05-24T04:14:27.510Z,1009.68
2016-05-24T04:15:27.513Z,1009.7
2016-05-24T04:16:27.517Z,1009.68
2016-05-24T04:17:27.519Z,1009.72
2016-05-24T04:18:27.538Z,1009.73
2016-05-24T04:19:27.540Z,1009.71
2016-05-24T04:20:27.542Z,1009.81
2016-05-24T04:21:27.546Z,1009.78
2016-05-24T04:22:27.563Z,1009.82
2016-05-24T04:23:27.566Z,1009.81
2016-05-24T04:24:27.569Z,1009.81
2016-05-24T04:25:27.571Z,1009.78
2016-05-24T04:26:27.590Z,1009.81
2016-05-24T04:27:27.592Z,1009.83
2016-05-24T04:28:27.596Z,1009.84
2016-05-24T04:29:27.598Z,1009.83
2016-05-24T04:30:27.601Z,1009.83
2016-05-24T04:31:27.619Z,1009.88
2016-05-24T04:33:27.625Z,1009.85
2016-05-24T04:34:27.628Z,1009.84
2016-05-24T04:35:27.630Z,1009.9
2016-05-24T04:36:27.648Z,1009.86
2016-05-24T04:37:27.650Z,1009.89
2016-05-24T04:38:27.653Z,1009.95
2016-05-24T04:39:27.656Z,1009.86
2016-05-24T04:40:27.659Z,1009.85
2016-05-24T04:41:27.677Z,1009.89
2016-05-24T04:42:27.680Z,1009.88
2016-05-24T04:43:27.682Z,1009.92
2016-05-24T04:44:27.701Z,1009.87
2016-05-24T04:45:27.703Z,1009.95
2016-05-24T04:46:27.706Z,1009.89
2016-05-24T04:47:27.708Z,1009.89
2016-05-24T04:48:27.711Z,1009.91
2016-05-24T04:49:27.729Z,1009.89
2016-05-24T04:50:27.733Z,1009.89
2016-05-24T04:51:27.736Z,1009.9
2016-05-24T04:52:27.738Z,1009.95
2016-05-24T04:53:27.740Z,1009.92
2016-05-24T04:54:27.759Z,1009.91
2016-05-24T04:55:27.762Z,1009.89
2016-05-24T04:56:27.765Z,1009.84
2016-05-24T04:57:27.783Z,1009.9
2016-05-24T04:58:27.770Z,1009.86
2016-05-24T04:59:27.787Z,1009.9
2016-05-24T05:00:27.791Z,1009.91
2016-05-24T05:01:27.793Z,1009.9
2016-05-24T05:02:27.796Z,1009.91
2016-05-24T05:03:27.815Z,1009.96
2016-05-24T05:04:27.817Z,1009.94
2016-05-24T05:05:27.820Z,1009.98
2016-05-24T05:06:27.822Z,1010.01
2016-05-24T05:07:27.841Z,1010.03
2016-05-24T05:08:27.844Z,1010.04
2016-05-24T05:09:27.847Z,1010.09
2016-05-24T05:10:27.849Z,1010.05
2016-05-24T05:11:27.852Z,1010.09
2016-05-24T05:12:27.855Z,1010.14
2016-05-24T05:13:27.889Z,1010.13
2016-05-24T05:14:27.875Z,1010.13
2016-05-24T05:15:27.878Z,1010.13
2016-05-24T05:16:27.880Z,1010.13
2016-05-24T05:17:27.899Z,1010.11
2016-05-24T05:18:27.902Z,1010.1
2016-05-24T05:19:27.905Z,1010.12
2016-05-24T05:20:27.907Z,1010.13
2016-05-24T05:21:27.910Z,1010.11
2016-05-24T05:22:27.928Z,1010.09
2016-05-24T05:23:27.931Z,1010.11
2016-05-24T05:24:27.932Z,1010.14
2016-05-24T05:25:27.936Z,1010.09
2016-05-24T05:26:27.955Z,1010.1
2016-05-24T05:27:27.957Z,1010.12
2016-05-24T05:28:27.959Z,1010.14
2016-05-24T05:29:27.962Z,1010.13
2016-05-24T05:30:27.965Z,1010.15
2016-05-24T05:31:27.984Z,1010.18
2016-05-24T05:32:27.986Z,1010.18
2016-05-24T05:33:27.990Z,1010.21
2016-05-24T05:34:27.992Z,1010.27
2016-05-24T05:35:27.994Z,1010.19
2016-05-24T05:36:27.998Z,1010.21
2016-05-24T05:37:28.015Z,1010.21
2016-05-24T05:38:28.017Z,1010.22
2016-05-24T05:39:28.020Z,1010.2
2016-05-24T05:40:28.023Z,1010.24
2016-05-24T05:41:28.042Z,1010.23
2016-05-24T05:42:28.044Z,1010.18
2016-05-24T05:43:28.047Z,1010.25
2016-05-24T05:44:28.050Z,1010.23
2016-05-24T05:45:28.052Z,1010.2
2016-05-24T05:46:28.071Z,1010.23
2016-05-24T05:47:28.073Z,1010.21
2016-05-24T05:48:28.076Z,1010.2
2016-05-24T05:49:28.080Z,1010.22
2016-05-24T05:50:28.082Z,1010.23
2016-05-24T05:51:28.100Z,1010.22
2016-05-24T05:52:28.102Z,1010.2
2016-05-24T05:53:28.105Z,1010.23
2016-05-24T05:54:28.123Z,1010.26
2016-05-24T05:55:28.126Z,1010.27
2016-05-24T05:56:28.129Z,1010.31
2016-05-24T05:57:28.132Z,1010.29
2016-05-24T05:58:28.134Z,1010.27
2016-05-24T05:59:28.152Z,1010.31
2016-05-24T06:00:28.155Z,1010.2
2016-05-24T06:01:28.157Z,1010.24
2016-05-24T06:02:28.176Z,1010.32
2016-05-24T06:03:28.178Z,1010.24
2016-05-24T06:04:28.182Z,1010.2
2016-05-24T06:05:28.184Z,1010.22
2016-05-24T06:06:28.187Z,1010.24
2016-05-24T06:07:28.189Z,1010.25
2016-05-24T06:08:28.192Z,1010.25
2016-05-24T06:09:28.210Z,1010.29
2016-05-24T06:10:28.213Z,1010.22
2016-05-24T06:11:28.217Z,1010.29
2016-05-24T06:12:28.219Z,1010.29
2016-05-24T06:13:28.236Z,1010.28
2016-05-24T06:14:28.303Z,1010.26
2016-05-24T06:15:28.508Z,1010.24
2016-05-24T06:16:28.244Z,1010.22
2016-05-24T06:17:28.263Z,1010.2
2016-05-24T06:18:28.266Z,1010.21
2016-05-24T06:19:28.269Z,1010.22
2016-05-24T06:20:28.272Z,1010.21
2016-05-24T06:21:28.274Z,1010.2
2016-05-24T06:22:28.293Z,1010.19
2016-05-24T06:23:28.295Z,1010.18
2016-05-24T06:24:28.298Z,1010.17
2016-05-24T06:25:28.301Z,1010.18
2016-05-24T06:26:28.304Z,1010.19
2016-05-24T06:27:28.321Z,1010.27
2016-05-24T06:28:28.324Z,1010.24
2016-05-24T06:29:28.327Z,1010.24
2016-05-24T06:30:28.345Z,1010.2
2016-05-24T06:31:28.348Z,1010.23
2016-05-24T06:32:28.351Z,1010.26
2016-05-24T06:33:28.354Z,1010.29
2016-05-24T06:34:28.356Z,1010.29
2016-05-24T06:35:28.374Z,1010.31
2016-05-24T06:36:28.377Z,1010.33
2016-05-24T06:37:28.379Z,1010.37
2016-05-24T06:38:28.382Z,1010.39
2016-05-24T06:39:28.385Z,1010.41
2016-05-24T06:40:28.404Z,1010.39
2016-05-24T06:41:28.406Z,1010.38
2016-05-24T06:42:28.408Z,1010.42
2016-05-24T06:43:28.427Z,1010.39
2016-05-24T06:44:28.414Z,1010.42
2016-05-24T06:45:28.433Z,1010.43
2016-05-24T06:46:28.436Z,1010.42
2016-05-24T06:47:28.438Z,1010.45
2016-05-24T06:48:28.441Z,1010.47
2016-05-24T06:49:28.459Z,1010.5
2016-05-24T06:50:28.462Z,1010.51
2016-05-24T06:51:28.464Z,1010.56
2016-05-24T06:52:28.467Z,1010.56
2016-05-24T06:53:28.469Z,1010.55
2016-05-24T06:54:28.488Z,1010.49
2016-05-24T06:55:28.491Z,1010.54
2016-05-24T06:56:28.509Z,1010.53
2016-05-24T06:57:28.512Z,1010.5
2016-05-24T06:58:28.515Z,1010.51
2016-05-24T06:59:28.518Z,1010.5
2016-05-24T07:00:28.521Z,1010.51
2016-05-24T07:01:28.523Z,1010.5
2016-05-24T07:02:28.541Z,1010.48
2016-05-24T07:03:28.543Z,1010.46
2016-05-24T07:04:28.546Z,1010.48
2016-05-24T07:05:28.549Z,1010.49
2016-05-24T07:06:28.567Z,1010.45
2016-05-24T07:07:28.570Z,1010.47
2016-05-24T07:08:28.588Z,1010.48
2016-05-24T07:09:28.576Z,1010.39
2016-05-24T07:10:28.593Z,1010.44
2016-05-24T07:11:28.596Z,1010.47
2016-05-24T07:12:28.599Z,1010.48
2016-05-24T07:13:28.602Z,1010.48
2016-05-24T07:14:28.604Z,1010.5
2016-05-24T07:15:28.622Z,1010.53
2016-05-24T07:16:28.625Z,1010.5
2016-05-24T07:17:28.628Z,1010.52
2016-05-24T07:18:28.630Z,1010.51
2016-05-24T07:19:28.649Z,1010.51
2016-05-24T07:20:28.652Z,1010.52
2016-05-24T07:21:28.639Z,1010.55
2016-05-24T07:22:28.657Z,1010.52
2016-05-24T07:23:28.660Z,1010.52
2016-05-24T07:24:28.678Z,1010.51
2016-05-24T07:25:28.681Z,1010.48
2016-05-24T07:26:28.683Z,1010.54
2016-05-24T07:27:28.686Z,1010.49
2016-05-24T07:28:28.705Z,1010.55
2016-05-24T07:29:28.707Z,1010.57
2016-05-24T07:30:28.710Z,1010.58
2016-05-24T07:31:28.712Z,1010.59
2016-05-24T07:32:28.715Z,1010.59
2016-05-24T07:33:28.718Z,1010.67
2016-05-24T07:34:28.737Z,1010.7
2016-05-24T07:35:28.739Z,1010.65
2016-05-24T07:36:28.742Z,1010.68
2016-05-24T07:37:28.760Z,1010.61
2016-05-24T07:38:28.763Z,1010.56
2016-05-24T07:39:28.765Z,1010.57
2016-05-24T07:40:28.768Z,1010.56
2016-05-24T07:41:28.786Z,1010.54
2016-05-24T07:42:28.820Z,1010.54
2016-05-24T07:43:28.792Z,1010.51
2016-05-24T07:44:28.794Z,1010.51
2016-05-24T07:45:28.892Z,1010.51
2016-05-24T07:46:28.815Z,1010.54
2016-05-24T07:47:28.833Z,1010.53
2016-05-24T07:48:28.837Z,1010.59
2016-05-24T07:49:28.823Z,1010.53
2016-05-24T07:50:28.826Z,1010.58
2016-05-24T07:51:28.845Z,1010.54
2016-05-24T07:52:28.847Z,1010.52
2016-05-24T07:53:28.850Z,1010.52
2016-05-24T07:54:28.852Z,1010.5
2016-05-24T07:55:28.871Z,1010.51
2016-05-24T07:56:28.874Z,1010.51
2016-05-24T07:57:28.877Z,1010.53
2016-05-24T07:58:28.894Z,1010.57
2016-05-24T07:59:28.929Z,1010.53
2016-05-24T08:00:28.962Z,1010.57
2016-05-24T08:01:28.902Z,1010.54
2016-05-24T08:02:28.905Z,1010.53
2016-05-24T08:03:28.924Z,1010.5
2016-05-24T08:04:28.927Z,1010.52
2016-05-24T08:05:28.945Z,1010.52
2016-05-24T08:06:28.948Z,1010.52
2016-05-24T08:07:28.950Z,1010.53
2016-05-24T08:08:28.953Z,1010.55
2016-05-24T08:09:28.956Z,1010.53
2016-05-24T08:10:28.974Z,1010.51
2016-05-24T08:11:28.976Z,1010.51
2016-05-24T08:12:29.010Z,1010.51
2016-05-24T08:13:28.982Z,1010.49
2016-05-24T08:14:29.015Z,1010.43
2016-05-24T08:15:29.018Z,1010.45
2016-05-24T08:16:29.006Z,1010.47
2016-05-24T08:17:29.009Z,1010.43
2016-05-24T08:18:29.011Z,1010.42
2016-05-24T08:19:29.028Z,1010.44
2016-05-24T08:20:29.031Z,1010.39
2016-05-24T08:21:29.051Z,1010.38
2016-05-24T08:22:29.069Z,1010.37
2016-05-24T08:23:29.072Z,1010.35
2016-05-24T08:24:29.059Z,1010.33
2016-05-24T08:25:29.139Z,1010.35
2016-05-24T08:26:29.079Z,1010.37
2016-05-24T08:27:29.082Z,1010.32
2016-05-24T08:28:29.085Z,1010.37
2016-05-24T08:29:29.103Z,1010.44
2016-05-24T08:30:29.105Z,1010.38
2016-05-24T08:31:29.108Z,1010.4
2016-05-24T08:32:29.111Z,1010.4
2016-05-24T08:33:29.129Z,1010.37
2016-05-24T08:34:29.132Z,1010.41
2016-05-24T08:35:29.135Z,1010.43
2016-05-24T08:36:29.138Z,1010.4
2016-05-24T08:37:29.156Z,1010.43
2016-05-24T08:38:29.159Z,1010.39
2016-05-24T08:39:29.176Z,1010.45
2016-05-24T08:40:29.164Z,1010.46
2016-05-24T08:41:29.182Z,1010.52
2016-05-24T08:42:29.185Z,1010.53
2016-05-24T08:43:29.188Z,1010.56
2016-05-24T08:44:29.206Z,1010.57
2016-05-24T08:45:29.521Z,1010.61
2016-05-24T08:46:29.211Z,1010.61
2016-05-24T08:47:29.229Z,1010.63
2016-05-24T08:48:29.231Z,1010.61
2016-05-24T08:49:29.234Z,1010.63
2016-05-24T08:50:29.254Z,1010.59
2016-05-24T08:51:29.256Z,1010.64
2016-05-24T08:52:29.258Z,1010.62
2016-05-24T08:53:29.277Z,1010.65
2016-05-24T08:54:29.264Z,1010.63
2016-05-24T08:55:29.282Z,1010.64
2016-05-24T08:56:29.286Z,1010.62
2016-05-24T08:57:29.288Z,1010.56
2016-05-24T08:58:29.306Z,1010.54
2016-05-24T08:59:29.308Z,1010.56
2016-05-24T09:00:29.311Z,1010.56
2016-05-24T09:01:29.314Z,1010.54
2016-05-24T09:02:29.332Z,1010.5
2016-05-24T09:03:29.336Z,1010.52
2016-05-24T09:04:29.338Z,1010.49
2016-05-24T09:05:29.356Z,1010.51
2016-05-24T09:06:29.359Z,1010.5
2016-05-24T09:07:29.362Z,1010.5
2016-05-24T09:08:29.365Z,1010.49
2016-05-24T09:09:29.367Z,1010.48
2016-05-24T09:10:29.463Z,1010.54
2016-05-24T09:11:29.388Z,1010.54
2016-05-24T09:12:29.391Z,1010.56
2016-05-24T09:13:29.409Z,1010.52
2016-05-24T09:14:29.412Z,1010.48
2016-05-24T09:15:29.415Z,1010.46
2016-05-24T09:16:29.432Z,1010.47
2016-05-24T09:17:29.435Z,1010.44
2016-05-24T09:18:29.437Z,1010.48
2016-05-24T09:19:29.440Z,1010.46
2016-05-24T09:20:29.459Z,1010.51
2016-05-24T09:21:29.462Z,1010.49
2016-05-24T09:22:29.464Z,1010.51
2016-05-24T09:23:29.467Z,1010.53
2016-05-24T09:24:29.486Z,1010.56
2016-05-24T09:25:29.489Z,1010.63
2016-05-24T09:26:29.491Z,1010.59
2016-05-24T09:27:29.508Z,1010.64
2016-05-24T09:28:29.512Z,1010.57
2016-05-24T09:29:29.514Z,1010.58
2016-05-24T09:30:29.627Z,1010.66
2016-05-24T09:31:29.520Z,1010.63
2016-05-24T09:32:29.647Z,1010.65
2016-05-24T09:33:29.541Z,1010.64
2016-05-24T09:34:29.638Z,1010.67
2016-05-24T09:35:29.562Z,1010.64
2016-05-24T09:36:29.564Z,1010.64
2016-05-24T09:37:29.564Z,1010.61
2016-05-24T09:38:29.583Z,1010.58
2016-05-24T09:39:29.585Z,1010.63
2016-05-24T09:40:29.588Z,1010.6
2016-05-24T09:41:29.607Z,1010.59
2016-05-24T09:42:29.609Z,1010.61
2016-05-24T09:43:29.612Z,1010.59
2016-05-24T09:44:29.615Z,1010.64
2016-05-24T09:45:33.495Z,1010.61
2016-05-24T09:46:29.635Z,1010.64
2016-05-24T09:47:29.637Z,1010.59
2016-05-24T09:48:29.641Z,1010.62
2016-05-24T09:49:29.660Z,1010.58
2016-05-24T09:50:29.661Z,1010.56
2016-05-24T09:51:29.665Z,1010.54
2016-05-24T09:52:29.683Z,1010.53
2016-05-24T09:53:29.686Z,1010.54
2016-05-24T09:54:29.689Z,1010.56
2016-05-24T09:55:29.691Z,1010.57
2016-05-24T09:56:29.709Z,1010.59
2016-05-24T09:57:29.712Z,1010.62
2016-05-24T09:58:29.714Z,1010.6
2016-05-24T09:59:29.717Z,1010.61
2016-05-24T10:00:29.752Z,1010.61
2016-05-24T10:01:29.739Z,1010.59
2016-05-24T10:02:29.741Z,1010.57
2016-05-24T10:03:29.744Z,1010.59
2016-05-24T10:04:29.763Z,1010.61
2016-05-24T10:05:29.780Z,1010.61
2016-05-24T10:06:29.767Z,1010.64
2016-05-24T10:07:29.799Z,1010.62
2016-05-24T10:08:29.824Z,1010.65
2016-05-24T10:09:29.848Z,1010.61
2016-05-24T10:10:29.873Z,1010.61
2016-05-24T10:11:29.914Z,1010.58
2016-05-24T10:12:29.929Z,1010.59
2016-05-24T10:13:29.940Z,1010.54
2016-05-24T10:14:30.045Z,1010.54
2016-05-24T10:15:29.976Z,1010.56
2016-05-24T10:16:29.988Z,1010.63
2016-05-24T10:17:29.995Z,1010.62
2016-05-24T10:18:30.017Z,1010.58
2016-05-24T10:19:30.022Z,1010.62
2016-05-24T10:20:30.027Z,1010.62
2016-05-24T10:21:30.861Z,1010.62
2016-05-24T10:22:30.053Z,1010.64
2016-05-24T10:23:30.057Z,1010.64
2016-05-24T10:24:30.061Z,1010.66
2016-05-24T10:25:30.079Z,1010.64
2016-05-24T10:26:30.083Z,1010.64
2016-05-24T10:27:30.181Z,1010.64
2016-05-24T10:28:30.090Z,1010.64
2016-05-24T10:29:30.109Z,1010.65
2016-05-24T10:30:30.112Z,1010.65
2016-05-24T10:31:30.115Z,1010.67
2016-05-24T10:32:30.134Z,1010.6
2016-05-24T10:33:30.137Z,1010.6
2016-05-24T10:34:30.139Z,1010.65
2016-05-24T10:35:30.142Z,1010.63
2016-05-24T10:36:30.159Z,1010.64
2016-05-24T10:37:30.162Z,1010.66
2016-05-24T10:38:30.165Z,1010.68
2016-05-24T10:39:30.184Z,1010.65
2016-05-24T10:40:30.264Z,1010.68
2016-05-24T10:41:30.189Z,1010.66
2016-05-24T10:42:30.364Z,1010.68
2016-05-24T10:43:30.209Z,1010.66
2016-05-24T10:44:30.228Z,1010.64
2016-05-24T10:45:30.215Z,1010.65
2016-05-24T10:46:30.217Z,1010.66
2016-05-24T10:47:30.236Z,1010.68
2016-05-24T10:48:30.239Z,1010.7
2016-05-24T10:49:30.242Z,1010.73
2016-05-24T10:50:30.260Z,1010.74
2016-05-24T10:51:30.263Z,1010.74
2016-05-24T10:52:30.266Z,1010.75
2016-05-24T10:53:30.268Z,1010.71
2016-05-24T10:54:30.286Z,1010.66
2016-05-24T10:55:30.288Z,1010.76
2016-05-24T10:56:30.291Z,1010.74
2016-05-24T10:57:30.294Z,1010.73
2016-05-24T10:58:30.313Z,1010.76
2016-05-24T10:59:30.315Z,1010.75
2016-05-24T11:00:30.396Z,1010.77
2016-05-24T11:01:30.336Z,1010.77
2016-05-24T11:02:30.340Z,1010.79
2016-05-24T11:03:30.342Z,1010.82
2016-05-24T11:04:30.345Z,1010.83
2016-05-24T11:05:30.363Z,1010.8
2016-05-24T11:06:30.365Z,1010.8
2016-05-24T11:07:30.368Z,1010.78
2016-05-24T11:08:30.387Z,1010.75
2016-05-24T11:09:30.389Z,1010.71
2016-05-24T11:10:30.392Z,1010.7
2016-05-24T11:11:30.410Z,1010.74
2016-05-24T11:12:30.412Z,1010.7
2016-05-24T11:13:30.415Z,1010.69
2016-05-24T11:14:30.417Z,1010.67
2016-05-24T11:15:30.437Z,1010.65
2016-05-24T11:16:30.439Z,1010.67
2016-05-24T11:17:30.441Z,1010.66
2016-05-24T11:18:30.445Z,1010.61
2016-05-24T11:19:30.463Z,1010.59
2016-05-24T11:20:30.466Z,1010.54
2016-05-24T11:21:30.469Z,1010.55
2016-05-24T11:22:30.471Z,1010.54
2016-05-24T11:23:30.474Z,1010.56
2016-05-24T11:24:30.492Z,1010.56
2016-05-24T11:25:30.494Z,1010.56
2016-05-24T11:26:30.497Z,1010.53
2016-05-24T11:27:30.516Z,1010.53
2016-05-24T11:28:30.518Z,1010.53
2016-05-24T11:29:30.521Z,1010.5
2016-05-24T11:30:30.540Z,1010.53
2016-05-24T11:31:30.543Z,1010.54
2016-05-24T11:32:30.623Z,1010.52
2016-05-24T11:33:30.548Z,1010.54
2016-05-24T11:34:30.597Z,1010.48
2016-05-24T11:35:30.569Z,1010.52
2016-05-24T11:36:30.571Z,1010.52
2016-05-24T11:37:30.651Z,1010.53
2016-05-24T11:38:30.592Z,1010.52
2016-05-24T11:39:30.595Z,1010.52
2016-05-24T11:40:30.598Z,1010.56
2016-05-24T11:41:30.600Z,1010.54
2016-05-24T11:42:30.618Z,1010.55
2016-05-24T11:43:30.621Z,1010.52
2016-05-24T11:44:30.623Z,1010.49
2016-05-24T11:45:30.736Z,1010.5
2016-05-24T11:46:30.644Z,1010.46
2016-05-24T11:47:30.647Z,1010.42
2016-05-24T11:48:30.650Z,1010.4
2016-05-24T11:49:30.669Z,1010.44
2016-05-24T11:50:30.672Z,1010.42
2016-05-24T11:51:30.675Z,1010.37
2016-05-24T11:52:30.691Z,1010.38
2016-05-24T11:53:30.695Z,1010.34
2016-05-24T11:54:30.698Z,1010.34
2016-05-24T11:55:30.700Z,1010.32
2016-05-24T11:56:30.719Z,1010.33
2016-05-24T11:57:30.721Z,1010.35
2016-05-24T11:58:30.724Z,1010.31
2016-05-24T11:59:30.727Z,1010.29
2016-05-24T12:00:30.838Z,1010.29
2016-05-24T12:01:30.748Z,1010.28
2016-05-24T12:02:30.751Z,1010.28
2016-05-24T12:03:30.768Z,1010.27
2016-05-24T12:04:30.771Z,1010.33
2016-05-24T12:05:30.774Z,1010.29
2016-05-24T12:06:30.777Z,1010.24
2016-05-24T12:07:30.795Z,1010.28
2016-05-24T12:08:30.798Z,1010.23
2016-05-24T12:09:30.801Z,1010.24